Terminal Aerodrome Forecast
Issued by NWS St Louis, MO

Home | Current Version | Previous Version | Text Only | Print | Product List | Glossary On
Versions: 1 2 3 4 5 6 7 8 9 10 11 12 13 14 15 16 17 18 19 20 21 22 23 24 25 26
000
FTUS43 KLSX 030800 AAA
TAFSTL
TAF AMD
KSTL 030858Z 0309/0412 17005KT P6SM BKN100 WS010/17025KT
     FM031400 19011KT P6SM BKN100
     FM031800 19012G20KT P6SM SCT200
     FM040000 17010KT P6SM SCT200=

USA.gov is the U.S. government's official web portal to all federal, state and local government web resources and services.